createdAt,value
2023-03-02T00:00:16.702Z,13.77
2023-03-02T00:03:18.762Z,13.20
2023-03-02T00:06:20.745Z,13.67
2023-03-02T00:09:23.087Z,12.43
2023-03-02T00:12:27.760Z,11.83
2023-03-02T00:15:29.842Z,9.70
2023-03-02T00:18:31.816Z,10.33
2023-03-02T00:21:34.102Z,9.23
2023-03-02T00:24:36.015Z,10.37
2023-03-02T00:27:38.246Z,10.17
2023-03-02T00:30:40.260Z,9.37
2023-03-02T00:33:42.557Z,9.83
2023-03-02T00:36:44.672Z,9.43
2023-03-02T00:39:46.982Z,9.43
2023-03-02T00:42:48.955Z,9.23
2023-03-02T00:45:50.901Z,11.57
2023-03-02T00:48:53.208Z,10.97
2023-03-02T00:51:55.108Z,11.57
2023-03-02T00:54:57.133Z,10.83
2023-03-02T00:57:59.594Z,9.70
2023-03-02T01:01:06.496Z,9.57
2023-03-02T01:04:09.094Z,10.47
2023-03-02T01:07:13.555Z,11.30
2023-03-02T01:10:16.589Z,9.47
2023-03-02T01:13:19.631Z,9.93
2023-03-02T01:16:21.722Z,9.80
2023-03-02T01:19:23.771Z,9.53
2023-03-02T01:22:26.468Z,9.97
2023-03-02T01:25:28.374Z,9.50
2023-03-02T01:28:30.348Z,10.83
2023-03-02T01:31:32.351Z,9.57
2023-03-02T01:34:34.398Z,8.97
2023-03-02T01:37:36.321Z,10.27
2023-03-02T01:40:38.312Z,10.27
2023-03-02T01:43:41.311Z,9.53
2023-03-02T01:46:43.341Z,8.10
2023-03-02T01:49:58.660Z,8.97
2023-03-02T01:53:01.395Z,8.63
2023-03-02T01:56:04.259Z,8.43
2023-03-02T01:59:08.703Z,8.80
2023-03-02T02:02:11.927Z,8.43
2023-03-02T02:05:22.130Z,8.17
2023-03-02T02:08:24.404Z,7.17
2023-03-02T02:11:26.883Z,8.13
2023-03-02T02:14:29.031Z,7.77
2023-03-02T02:17:32.836Z,7.80
2023-03-02T02:20:45.853Z,7.00
2023-03-02T02:24:02.307Z,6.17
2023-03-02T02:27:05.365Z,6.67
2023-03-02T02:30:08.110Z,6.77
2023-03-02T02:33:15.466Z,6.20
2023-03-02T02:36:26.223Z,6.23
2023-03-02T02:39:31.433Z,5.97
2023-03-02T02:42:36.572Z,6.00
2023-03-02T02:45:38.577Z,6.23
2023-03-02T02:48:40.572Z,5.87
2023-03-02T02:51:42.450Z,5.80
2023-03-02T02:54:47.948Z,5.53
2023-03-02T02:57:52.444Z,5.57
2023-03-02T03:00:55.538Z,6.20
2023-03-02T03:04:01.991Z,5.83
2023-03-02T03:07:06.880Z,6.03
2023-03-02T03:10:24.129Z,5.57
2023-03-02T03:13:26.326Z,5.70
2023-03-02T03:16:30.724Z,5.30
2023-03-02T03:19:33.523Z,5.57
2023-03-02T03:22:37.969Z,5.97
2023-03-02T03:25:41.755Z,5.57
2023-03-02T03:28:43.959Z,5.10
2023-03-02T03:31:46.099Z,4.70
2023-03-02T03:34:47.957Z,4.80
2023-03-02T03:37:50.421Z,4.40
2023-03-02T03:40:52.424Z,4.50
2023-03-02T03:43:55.876Z,4.47
2023-03-02T03:46:58.193Z,4.60
2023-03-02T03:50:00.461Z,4.10
2023-03-02T03:53:03.829Z,4.57
2023-03-02T03:56:08.546Z,3.60
2023-03-02T03:59:13.959Z,4.20
2023-03-02T04:02:16.073Z,3.73
2023-03-02T04:05:18.429Z,4.07
2023-03-02T04:08:20.776Z,3.40
2023-03-02T04:11:22.717Z,4.57
2023-03-02T04:14:25.503Z,4.30
2023-03-02T04:17:28.487Z,4.17
2023-03-02T04:20:31.061Z,4.10
2023-03-02T04:23:32.966Z,4.70
2023-03-02T04:26:36.235Z,4.50
2023-03-02T04:29:38.580Z,3.87
2023-03-02T04:32:41.016Z,3.63
2023-03-02T04:35:43.003Z,4.33
2023-03-02T04:38:46.895Z,5.33
2023-03-02T04:41:49.437Z,6.43
2023-03-02T04:44:51.365Z,6.97
2023-03-02T04:47:53.308Z,5.43
2023-03-02T04:50:55.184Z,3.30
2023-03-02T04:53:59.942Z,3.27
2023-03-02T04:57:02.704Z,3.90
2023-03-02T05:00:05.477Z,2.57
2023-03-02T05:03:07.595Z,3.40
2023-03-02T05:06:10.573Z,4.10
2023-03-02T05:09:12.572Z,4.30
2023-03-02T05:12:14.548Z,4.10
2023-03-02T05:15:16.583Z,4.33
2023-03-02T05:18:20.629Z,4.20
2023-03-02T05:21:23.503Z,3.90
2023-03-02T05:24:25.985Z,4.07
2023-03-02T05:27:27.843Z,3.83
2023-03-02T05:30:31.125Z,3.63
2023-03-02T05:33:33.100Z,3.20
2023-03-02T05:36:35.646Z,3.70
2023-03-02T05:39:37.936Z,3.70
2023-03-02T05:42:41.335Z,4.80
2023-03-02T05:45:43.296Z,4.80
2023-03-02T05:48:46.192Z,4.43
2023-03-02T05:51:48.118Z,4.17
2023-03-02T05:54:50.185Z,5.97
2023-03-02T05:57:53.329Z,5.33
2023-03-02T06:00:58.361Z,4.73
2023-03-02T06:04:00.409Z,4.97
2023-03-02T06:07:02.333Z,6.07
2023-03-02T06:10:05.691Z,5.00
2023-03-02T06:13:08.240Z,5.00
2023-03-02T06:16:10.596Z,4.80
2023-03-02T06:19:12.574Z,5.00
2023-03-02T06:22:14.530Z,5.20
2023-03-02T06:25:19.666Z,6.03
2023-03-02T06:28:22.147Z,5.37
2023-03-02T06:31:24.143Z,5.03
2023-03-02T06:34:26.269Z,5.33
2023-03-02T06:37:30.303Z,5.47
2023-03-02T06:40:32.217Z,5.10
2023-03-02T06:43:34.265Z,4.03
2023-03-02T06:46:38.262Z,3.67
2023-03-02T06:49:40.334Z,2.47
2023-03-02T06:52:42.250Z,2.37
2023-03-02T06:55:44.700Z,2.97
2023-03-02T06:58:46.697Z,3.00
2023-03-02T07:01:51.076Z,3.20
2023-03-02T07:04:53.037Z,2.77
2023-03-02T07:07:55.003Z,2.73
2023-03-02T07:10:57.106Z,2.50
2023-03-02T07:14:00.898Z,2.53
2023-03-02T07:17:05.184Z,3.37
2023-03-02T07:20:08.341Z,3.00
2023-03-02T07:23:10.201Z,3.10
2023-03-02T07:26:12.279Z,4.20
2023-03-02T07:29:14.179Z,4.20
2023-03-02T07:32:16.251Z,4.30
2023-03-02T07:35:18.668Z,3.70
2023-03-02T07:38:20.664Z,4.13
2023-03-02T07:41:23.261Z,4.80
2023-03-02T07:44:25.242Z,3.97
2023-03-02T07:47:27.203Z,4.07
2023-03-02T07:50:29.243Z,4.10
2023-03-02T07:53:31.448Z,3.90
2023-03-02T07:56:33.372Z,3.73
2023-03-02T07:59:35.261Z,3.93
2023-03-02T08:02:37.293Z,3.60
2023-03-02T08:05:39.216Z,3.30
2023-03-02T08:08:41.139Z,3.13
2023-03-02T08:11:43.087Z,2.70
2023-03-02T08:14:46.336Z,2.87
2023-03-02T08:17:48.471Z,3.40
2023-03-02T08:20:50.452Z,3.13
2023-03-02T08:23:52.696Z,3.77
2023-03-02T08:26:55.572Z,3.53
2023-03-02T08:29:57.414Z,4.10
2023-03-02T08:33:02.182Z,4.10
2023-03-02T08:36:08.520Z,4.30
2023-03-02T08:39:11.307Z,3.20
2023-03-02T08:42:13.297Z,3.40
2023-03-02T08:45:15.540Z,3.40
2023-03-02T08:48:17.493Z,3.77
2023-03-02T08:51:22.526Z,3.93
2023-03-02T08:54:24.399Z,6.03
2023-03-02T08:57:26.890Z,6.20
2023-03-02T09:00:31.242Z,6.37
2023-03-02T09:03:33.681Z,5.93
2023-03-02T09:06:38.214Z,6.63
2023-03-02T09:09:41.074Z,6.20
2023-03-02T09:12:42.981Z,6.23
2023-03-02T09:15:45.606Z,6.87
2023-03-02T09:18:48.164Z,7.13
2023-03-02T09:21:50.280Z,6.90
2023-03-02T09:24:52.281Z,6.80
2023-03-02T09:27:54.243Z,7.27
2023-03-02T09:31:01.599Z,7.40
2023-03-02T09:34:04.602Z,7.17
2023-03-02T09:37:06.456Z,6.80
2023-03-02T09:40:22.896Z,6.07
2023-03-02T09:43:45.990Z,7.50
2023-03-02T09:47:03.649Z,6.33
2023-03-02T09:50:12.067Z,5.17
2023-03-02T09:53:24.138Z,4.03
2023-03-02T09:56:26.641Z,6.10
2023-03-02T09:59:41.768Z,6.03
2023-03-02T10:03:02.473Z,6.63
2023-03-02T10:06:08.967Z,5.23
2023-03-02T10:09:11.499Z,5.77
2023-03-02T10:12:48.934Z,6.70
2023-03-02T10:16:22.843Z,5.80
2023-03-02T10:19:41.942Z,5.90
2023-03-02T10:22:50.225Z,4.93
2023-03-02T10:26:02.435Z,4.93
2023-03-02T10:29:41.944Z,4.33
2023-03-02T10:32:50.918Z,4.60
2023-03-02T10:35:54.190Z,4.80
2023-03-02T10:38:59.037Z,5.20
2023-03-02T10:42:04.453Z,5.10
2023-03-02T10:45:21.275Z,5.73
2023-03-02T10:48:23.327Z,6.03
2023-03-02T10:51:35.556Z,6.73
2023-03-02T10:54:37.512Z,6.83
2023-03-02T10:57:44.446Z,6.47
2023-03-02T11:00:59.573Z,6.70
2023-03-02T11:04:02.576Z,6.17
2023-03-02T11:07:19.580Z,5.80
2023-03-02T11:10:24.112Z,6.00
2023-03-02T11:13:28.920Z,6.03
2023-03-02T11:16:32.709Z,6.37
2023-03-02T11:19:40.006Z,6.20
2023-03-02T11:23:10.104Z,5.30
2023-03-02T11:26:28.483Z,5.30
2023-03-02T11:29:33.597Z,6.00
2023-03-02T11:32:43.201Z,5.97
2023-03-02T11:35:48.239Z,5.60
2023-03-02T11:38:55.213Z,4.83
2023-03-02T11:41:57.562Z,4.27
2023-03-02T11:45:03.590Z,4.60
2023-03-02T11:48:24.577Z,5.03
2023-03-02T11:51:33.848Z,5.00
2023-03-02T11:54:40.173Z,7.77
2023-03-02T11:57:51.405Z,6.27
2023-03-02T12:00:54.280Z,5.60
2023-03-02T12:04:25.836Z,6.07
2023-03-02T12:07:28.391Z,5.90
2023-03-02T12:10:37.304Z,5.57
2023-03-02T12:13:40.751Z,5.70
2023-03-02T12:16:43.438Z,6.77
2023-03-02T12:19:46.541Z,6.33
2023-03-02T12:22:48.520Z,6.60
2023-03-02T12:25:51.666Z,6.60
2023-03-02T12:29:14.243Z,6.10
2023-03-02T12:32:19.336Z,6.87
2023-03-02T12:35:22.879Z,6.30
2023-03-02T12:38:37.316Z,7.43
2023-03-02T12:42:17.895Z,7.87
2023-03-02T12:45:53.877Z,7.27
2023-03-02T12:49:14.464Z,7.07
2023-03-02T12:52:34.192Z,7.23
2023-03-02T12:55:38.983Z,5.40
2023-03-02T12:58:41.227Z,4.60
2023-03-02T13:01:43.117Z,4.47
2023-03-02T13:04:45.635Z,5.00
2023-03-02T13:07:58.253Z,4.27
2023-03-02T13:11:03.661Z,4.70
2023-03-02T13:14:21.093Z,4.73
2023-03-02T13:17:31.211Z,5.07
2023-03-02T13:20:33.616Z,5.73
2023-03-02T13:23:35.903Z,6.30
2023-03-02T13:26:40.061Z,5.37
2023-03-02T13:29:41.897Z,5.10
2023-03-02T13:32:44.547Z,5.37
2023-03-02T13:35:47.851Z,7.30
2023-03-02T13:38:52.230Z,6.87
2023-03-02T13:41:56.784Z,6.00
2023-03-02T13:45:28.906Z,7.60
2023-03-02T13:48:31.947Z,7.60
2023-03-02T13:51:42.757Z,7.50
2023-03-02T13:54:46.104Z,8.67
2023-03-02T13:57:50.156Z,6.73
2023-03-02T14:00:52.568Z,6.33
2023-03-02T14:03:57.119Z,7.30
2023-03-02T14:06:59.266Z,7.00
2023-03-02T14:10:01.180Z,6.93
2023-03-02T14:13:06.658Z,6.40
2023-03-02T14:16:12.532Z,7.00
2023-03-02T14:19:18.497Z,7.07
2023-03-02T14:22:22.009Z,6.93
2023-03-02T14:25:24.872Z,7.73
2023-03-02T14:28:35.643Z,6.87
2023-03-02T14:31:37.564Z,7.40
2023-03-02T14:34:40.196Z,6.63
2023-03-02T14:37:46.498Z,6.57
2023-03-02T14:40:48.486Z,7.07
2023-03-02T14:43:51.069Z,6.93
2023-03-02T14:46:53.379Z,7.80
2023-03-02T14:49:55.472Z,7.50
2023-03-02T14:52:58.367Z,7.13
2023-03-02T14:56:01.360Z,6.73
2023-03-02T14:59:03.671Z,7.77
2023-03-02T15:02:19.023Z,7.20
2023-03-02T15:05:26.739Z,7.27
2023-03-02T15:08:29.622Z,6.83
2023-03-02T15:11:32.616Z,7.30
2023-03-02T15:14:34.967Z,7.10
2023-03-02T15:17:36.998Z,7.50
2023-03-02T15:20:40.219Z,7.10
2023-03-02T15:23:42.249Z,7.97
2023-03-02T15:26:44.129Z,7.33
2023-03-02T15:29:47.303Z,7.93
2023-03-02T15:32:49.150Z,8.20
2023-03-02T15:35:55.352Z,8.27
2023-03-02T15:38:57.604Z,7.80
2023-03-02T15:41:59.833Z,7.93
2023-03-02T15:45:02.427Z,7.90
2023-03-02T15:48:04.918Z,8.30
2023-03-02T15:51:07.820Z,7.53
2023-03-02T15:54:11.119Z,7.73
2023-03-02T15:57:13.189Z,8.50
2023-03-02T16:00:16.254Z,8.57
2023-03-02T16:03:19.414Z,8.00
2023-03-02T16:06:22.239Z,8.40
2023-03-02T16:09:25.842Z,8.67
2023-03-02T16:12:28.132Z,9.90
2023-03-02T16:15:30.955Z,8.90
2023-03-02T16:18:33.251Z,8.47
2023-03-02T16:21:35.188Z,8.50
2023-03-02T16:24:37.508Z,8.60
2023-03-02T16:27:39.349Z,8.97
2023-03-02T16:30:44.573Z,9.13
2023-03-02T16:33:48.076Z,8.97
2023-03-02T16:36:50.096Z,8.30
2023-03-02T16:39:52.400Z,8.90
2023-03-02T16:42:54.867Z,8.30
2023-03-02T16:45:57.444Z,8.77
2023-03-02T16:48:59.951Z,9.53
2023-03-02T16:52:01.851Z,9.00
2023-03-02T16:55:08.224Z,9.00
2023-03-02T16:58:10.306Z,10.17
2023-03-02T17:01:18.733Z,9.07
2023-03-02T17:04:22.201Z,9.53
2023-03-02T17:07:24.297Z,13.33
2023-03-02T17:10:26.326Z,10.10
2023-03-02T17:13:28.596Z,9.80
2023-03-02T17:16:30.695Z,9.80
2023-03-02T17:19:32.768Z,9.73
2023-03-02T17:22:35.015Z,9.70
2023-03-02T17:25:37.026Z,10.27
2023-03-02T17:28:39.519Z,9.87
2023-03-02T17:31:41.838Z,9.40
2023-03-02T17:34:43.668Z,10.00
2023-03-02T17:37:46.239Z,10.73
2023-03-02T17:40:48.146Z,9.30
2023-03-02T17:43:50.786Z,9.40
2023-03-02T17:46:52.666Z,9.70
2023-03-02T17:49:56.468Z,9.60
2023-03-02T17:53:00.186Z,9.40
2023-03-02T17:56:02.281Z,10.00
2023-03-02T17:59:05.952Z,10.97
2023-03-02T18:02:08.648Z,14.27
2023-03-02T18:05:11.162Z,11.50
2023-03-02T18:08:13.152Z,7.43
2023-03-02T18:11:16.361Z,9.67
2023-03-02T18:14:20.420Z,8.57
2023-03-02T18:17:22.437Z,8.73
2023-03-02T18:20:24.430Z,7.60
2023-03-02T18:23:27.185Z,7.27
2023-03-02T18:26:29.345Z,8.40
2023-03-02T18:29:31.456Z,7.63
2023-03-02T18:32:33.509Z,7.50
2023-03-02T18:35:35.618Z,8.93
2023-03-02T18:38:38.610Z,8.60
2023-03-02T18:41:41.784Z,8.30
2023-03-02T18:44:43.686Z,7.93
2023-03-02T18:47:46.245Z,7.50
2023-03-02T18:50:48.966Z,9.53
2023-03-02T18:53:51.410Z,12.37
2023-03-02T18:56:54.226Z,11.37
2023-03-02T18:59:56.189Z,10.40
2023-03-02T19:02:58.019Z,9.33
2023-03-02T19:06:00.182Z,10.33
2023-03-02T19:09:02.108Z,8.63
2023-03-02T19:12:04.830Z,9.07
2023-03-02T19:15:10.707Z,8.23
2023-03-02T19:18:17.466Z,7.37
2023-03-02T19:21:19.409Z,7.33
2023-03-02T19:24:21.320Z,8.63
2023-03-02T19:27:23.204Z,7.83
2023-03-02T19:30:26.938Z,10.73
2023-03-02T19:33:29.659Z,11.87
2023-03-02T19:36:31.749Z,10.20
2023-03-02T19:39:33.685Z,10.67
2023-03-02T19:42:39.499Z,10.90
2023-03-02T19:45:41.526Z,11.87
2023-03-02T19:48:44.121Z,13.00
2023-03-02T19:51:46.002Z,13.57
2023-03-02T19:54:47.952Z,12.10
2023-03-02T19:57:56.214Z,10.07
2023-03-02T20:00:58.386Z,9.80
2023-03-02T20:04:00.376Z,9.10
2023-03-02T20:07:03.857Z,8.30
2023-03-02T20:10:07.787Z,8.53
2023-03-02T20:13:10.144Z,8.60
2023-03-02T20:16:13.813Z,7.90
2023-03-02T20:19:15.926Z,7.97
2023-03-02T20:22:17.844Z,7.67
2023-03-02T20:25:21.076Z,9.53
2023-03-02T20:28:24.557Z,8.23
2023-03-02T20:31:27.064Z,8.20
2023-03-02T20:34:29.215Z,11.87
2023-03-02T20:37:32.232Z,11.13
2023-03-02T20:40:34.468Z,12.33
2023-03-02T20:43:36.661Z,11.07
2023-03-02T20:46:45.532Z,10.57
2023-03-02T20:49:47.895Z,10.13
2023-03-02T20:52:50.263Z,10.70
2023-03-02T20:55:52.474Z,10.77
2023-03-02T20:58:54.673Z,9.37
2023-03-02T21:01:56.914Z,9.77
2023-03-02T21:04:59.271Z,9.00
2023-03-02T21:08:03.421Z,8.57
2023-03-02T21:11:11.181Z,9.37
2023-03-02T21:14:14.684Z,8.83
2023-03-02T21:17:16.541Z,9.07
2023-03-02T21:20:19.091Z,8.67
2023-03-02T21:23:21.224Z,9.63
2023-03-02T21:26:23.784Z,9.87
2023-03-02T21:29:26.946Z,9.50
2023-03-02T21:32:28.978Z,9.63
2023-03-02T21:35:31.281Z,10.00
2023-03-02T21:38:33.197Z,10.27
2023-03-02T21:41:36.472Z,9.90
2023-03-02T21:44:39.059Z,9.73
2023-03-02T21:47:42.599Z,9.17
2023-03-02T21:50:44.887Z,9.00
2023-03-02T21:53:47.429Z,9.57
2023-03-02T21:56:50.151Z,11.03
2023-03-02T21:59:55.007Z,9.67
2023-03-02T22:02:58.093Z,10.63
2023-03-02T22:06:00.029Z,10.17
2023-03-02T22:09:03.032Z,10.63
2023-03-02T22:12:13.500Z,10.60
2023-03-02T22:15:16.041Z,13.43
2023-03-02T22:18:20.402Z,13.77
2023-03-02T22:21:36.185Z,14.07
2023-03-02T22:24:39.883Z,14.40
2023-03-02T22:27:42.998Z,14.83
2023-03-02T22:30:45.389Z,14.00
2023-03-02T22:33:48.640Z,15.83
2023-03-02T22:36:50.559Z,15.77
2023-03-02T22:40:08.492Z,15.57
2023-03-02T22:43:31.119Z,13.80
2023-03-02T22:46:33.155Z,12.77
2023-03-02T22:49:35.021Z,15.97
2023-03-02T22:52:39.622Z,16.27
2023-03-02T22:55:43.230Z,15.60
2023-03-02T22:58:50.079Z,13.23
2023-03-02T23:02:00.494Z,11.50
2023-03-02T23:05:02.838Z,11.20
2023-03-02T23:08:29.973Z,11.87
2023-03-02T23:11:35.384Z,10.60
2023-03-02T23:14:53.350Z,11.53
2023-03-02T23:17:58.058Z,10.50
2023-03-02T23:21:00.058Z,9.97
2023-03-02T23:24:03.110Z,9.93
2023-03-02T23:27:05.063Z,10.37
2023-03-02T23:30:07.719Z,10.30
2023-03-02T23:33:09.779Z,10.27
2023-03-02T23:36:12.101Z,9.67
2023-03-02T23:39:14.052Z,10.60
2023-03-02T23:42:16.103Z,10.43
2023-03-02T23:45:18.171Z,10.40
2023-03-02T23:48:20.598Z,10.23
2023-03-02T23:51:26.419Z,10.00
2023-03-02T23:54:28.542Z,9.00
2023-03-02T23:57:30.438Z,9.17
